Time;durP1;ratioP1;P1;durP2;ratioP2;P2;SDS_P1;SDS_P2;PMS_P1;PMS_P2;Temp;Humidity;BMP_temperature;BMP_pressure;BME280_temperature;BME280_humidity;BME280_pressure;Samples;Min_cycle;Max_cycle;Signal;HPM_P1;HPM_P2
2023/12/19 00:00:12;;;;;;;30.02;22.58;;;;;;;6.66;79.71;102522.09;5077380;28;20497;-66
2023/12/19 00:02:41;;;;;;;28.60;21.50;;;;;;;6.63;79.41;102526.09;5079590;28;20041;-67
2023/12/19 00:05:09;;;;;;;33.30;21.35;;;;;;;6.62;79.40;102540.09;5077020;28;20073;-66
2023/12/19 00:07:35;;;;;;;33.53;23.40;;;;;;;6.55;79.86;102536.34;5074111;28;20032;-66
2023/12/19 00:10:01;;;;;;;29.98;22.70;;;;;;;6.59;80.26;102537.69;5075823;28;20462;-66
2023/12/19 00:12:26;;;;;;;31.30;22.20;;;;;;;6.62;79.78;102521.63;5080689;28;20111;-67
2023/12/19 00:14:51;;;;;;;32.20;22.90;;;;;;;6.62;79.73;102507.81;5074992;28;20036;-66
2023/12/19 00:17:17;;;;;;;31.30;22.52;;;;;;;6.62;79.68;102515.25;5082453;28;20048;-65
2023/12/19 00:19:45;;;;;;;34.05;21.80;;;;;;;6.63;80.14;102509.53;5080963;28;20038;-66
2023/12/19 00:22:10;;;;;;;29.02;20.98;;;;;;;6.67;79.95;102503.66;5079205;28;20027;-67
2023/12/19 00:24:40;;;;;;;31.55;22.15;;;;;;;6.62;80.02;102494.03;5075515;28;20036;-64
2023/12/19 00:27:05;;;;;;;32.63;22.40;;;;;;;6.67;79.78;102485.19;5077069;28;20028;-65
2023/12/19 00:29:30;;;;;;;30.60;22.13;;;;;;;6.68;80.02;102499.84;5079236;28;20031;-64
2023/12/19 00:31:56;;;;;;;33.05;22.05;;;;;;;6.71;79.53;102505.84;5080004;28;20032;-66
2023/12/19 00:34:21;;;;;;;38.15;23.65;;;;;;;6.70;79.98;102495.84;5081215;28;20036;-65
2023/12/19 00:36:46;;;;;;;32.88;21.90;;;;;;;6.70;80.38;102484.81;5078860;28;20032;-64
2023/12/19 00:39:14;;;;;;;30.13;22.00;;;;;;;6.74;79.92;102474.25;5081510;28;20047;-65
2023/12/19 00:41:39;;;;;;;33.50;23.13;;;;;;;6.73;80.04;102475.31;5078132;28;20036;-65
2023/12/19 00:44:05;;;;;;;32.55;22.08;;;;;;;6.73;80.39;102467.03;5082256;28;20027;-65
2023/12/19 00:46:33;;;;;;;34.20;22.75;;;;;;;6.74;80.17;102477.03;5079840;28;20386;-65
2023/12/19 00:48:59;;;;;;;32.97;22.67;;;;;;;6.70;80.74;102453.59;5081144;28;20040;-65
2023/12/19 00:51:24;;;;;;;33.22;22.98;;;;;;;6.70;80.32;102445.34;5077770;28;20103;-65
2023/12/19 00:53:49;;;;;;;30.58;21.88;;;;;;;6.74;80.12;102441.16;5076094;28;20040;-65
2023/12/19 00:56:17;;;;;;;31.10;22.83;;;;;;;6.75;80.73;102440.09;5077134;28;20158;-66
2023/12/19 00:58:43;;;;;;;34.08;23.17;;;;;;;6.75;80.32;102445.63;5075612;28;20395;-65
2023/12/19 01:01:08;;;;;;;37.80;22.60;;;;;;;6.74;81.05;102432.88;5079683;28;20025;-65
2023/12/19 01:03:37;;;;;;;35.25;22.05;;;;;;;6.70;80.74;102429.63;5082140;28;20044;-65
2023/12/19 01:06:05;;;;;;;35.25;22.95;;;;;;;6.69;81.47;102433.44;5072337;28;20033;-65
2023/12/19 01:08:31;;;;;;;34.45;21.73;;;;;;;6.71;81.58;102425.81;5070451;28;20040;-65
2023/12/19 01:11:07;;;;;;;34.25;22.77;;;;;;;6.72;81.08;102415.63;5074213;28;20499;-65
2023/12/19 01:13:33;;;;;;;37.20;22.60;;;;;;;6.69;81.63;102416.88;5077114;28;20033;-64
2023/12/19 01:15:58;;;;;;;36.20;22.90;;;;;;;6.69;80.80;102411.38;5074192;28;20032;-65
2023/12/19 01:18:23;;;;;;;33.03;22.25;;;;;;;6.72;81.73;102407.34;5076635;28;20038;-65
2023/12/19 01:20:50;;;;;;;36.20;23.48;;;;;;;6.72;82.06;102404.59;5085367;28;20415;-65
2023/12/19 01:23:16;;;;;;;36.53;23.38;;;;;;;6.72;82.20;102410.13;5075277;28;20036;-65
2023/12/19 01:25:41;;;;;;;37.65;23.10;;;;;;;6.73;81.91;102406.31;5068419;28;20028;-66
2023/12/19 01:28:10;;;;;;;36.25;22.50;;;;;;;6.78;81.86;102403.84;5079278;28;20052;-65
2023/12/19 01:30:35;;;;;;;32.38;23.00;;;;;;;6.79;81.76;102411.94;5070632;28;20100;-65
2023/12/19 01:33:00;;;;;;;35.35;22.90;;;;;;;6.80;81.88;102412.81;5082878;28;20167;-65
2023/12/19 01:35:26;;;;;;;33.08;23.10;;;;;;;6.78;81.74;102414.88;5086250;28;20060;-65
2023/12/19 01:37:52;;;;;;;32.13;22.70;;;;;;;6.78;82.09;102410.22;5074020;28;20026;-65
2023/12/19 01:40:17;;;;;;;37.75;24.20;;;;;;;6.81;81.50;102406.22;5070276;28;20383;-65
2023/12/19 01:42:42;;;;;;;35.40;23.30;;;;;;;6.76;81.56;102412.31;5083355;28;20023;-65
2023/12/19 01:45:12;;;;;;;36.03;24.10;;;;;;;6.75;81.54;102410.59;5082277;28;20142;-65
2023/12/19 01:47:41;;;;;;;33.85;22.38;;;;;;;6.72;82.58;102410.13;5086354;28;20032;-65
2023/12/19 01:50:08;;;;;;;32.78;22.55;;;;;;;6.72;82.37;102401.84;5077500;28;20108;-65
2023/12/19 01:52:36;;;;;;;35.33;23.73;;;;;;;6.73;82.25;102398.06;5084434;28;20555;-65
2023/12/19 01:55:02;;;;;;;39.05;23.15;;;;;;;6.71;82.49;102397.38;5075389;28;20033;-65
2023/12/19 01:57:27;;;;;;;36.13;23.52;;;;;;;6.74;82.19;102397.84;5078979;28;20046;-65
2023/12/19 01:59:53;;;;;;;34.40;22.92;;;;;;;6.72;82.51;102399.97;5078811;28;20521;-65
2023/12/19 02:02:18;;;;;;;38.60;24.00;;;;;;;6.73;83.04;102384.25;5078205;28;20036;-65
2023/12/19 02:04:43;;;;;;;36.83;23.50;;;;;;;6.78;82.90;102390.06;5074387;28;20391;-65
2023/12/19 02:07:11;;;;;;;35.33;23.92;;;;;;;6.79;82.65;102389.84;5074758;28;20777;-65
2023/12/19 02:09:37;;;;;;;32.28;22.90;;;;;;;6.81;82.70;102396.06;5074759;28;20079;-65
2023/12/19 02:12:03;;;;;;;32.13;22.52;;;;;;;6.82;81.90;102383.09;5073096;28;20048;-65
2023/12/19 02:14:28;;;;;;;36.40;24.15;;;;;;;6.76;82.38;102387.50;5075310;28;20036;-65
2023/12/19 02:16:53;;;;;;;37.35;23.85;;;;;;;6.78;82.71;102373.50;5083936;28;20483;-64
2023/12/19 02:19:21;;;;;;;33.85;23.60;;;;;;;6.79;81.93;102373.28;5076264;28;20570;-64
2023/12/19 02:21:47;;;;;;;33.33;23.00;;;;;;;6.77;83.04;102369.88;5084003;28;20035;-65
2023/12/19 02:24:12;;;;;;;38.53;23.15;;;;;;;6.81;83.12;102360.16;5084072;28;20024;-65
2023/12/19 02:26:38;;;;;;;34.60;22.33;;;;;;;6.83;82.55;102352.53;5082358;28;20570;-64
2023/12/19 02:29:03;;;;;;;34.50;23.17;;;;;;;6.86;83.20;102341.13;5079304;28;20056;-65
2023/12/19 02:31:28;;;;;;;34.38;23.25;;;;;;;6.87;82.65;102348.34;5073252;28;20638;-64
2023/12/19 02:33:54;;;;;;;32.90;22.80;;;;;;;6.84;83.21;102354.28;5082660;28;20390;-65
2023/12/19 02:36:19;;;;;;;37.22;22.17;;;;;;;6.82;82.85;102345.31;5072228;28;20078;-65
2023/12/19 02:38:50;;;;;;;31.13;21.38;;;;;;;6.85;83.91;102353.22;5082209;28;20044;-65
2023/12/19 02:41:15;;;;;;;30.50;20.73;;;;;;;6.83;82.89;102355.31;5072433;28;20090;-65
2023/12/19 02:43:40;;;;;;;33.20;21.90;;;;;;;6.82;84.13;102355.50;5073536;28;21511;-65
2023/12/19 02:46:06;;;;;;;32.33;21.25;;;;;;;6.85;83.54;102349.59;5075213;28;20025;-65
2023/12/19 02:48:32;;;;;;;30.55;20.45;;;;;;;6.86;83.34;102348.56;5080528;28;20089;-65
2023/12/19 02:51:00;;;;;;;30.40;21.23;;;;;;;6.83;83.27;102357.22;5077653;28;20032;-65
2023/12/19 02:53:27;;;;;;;29.50;21.40;;;;;;;6.83;84.03;102333.22;5082148;28;20040;-65
2023/12/19 02:55:53;;;;;;;29.55;20.70;;;;;;;6.85;83.71;102328.38;5077255;28;20035;-64
2023/12/19 02:58:18;;;;;;;29.67;21.50;;;;;;;6.83;84.04;102324.09;5082915;28;20095;-65
2023/12/19 03:00:43;;;;;;;27.15;20.20;;;;;;;6.84;84.02;102314.78;5080242;28;20039;-65
2023/12/19 03:03:09;;;;;;;31.15;21.65;;;;;;;6.82;84.58;102309.44;5089873;28;20079;-65
2023/12/19 03:05:34;;;;;;;25.27;18.73;;;;;;;6.84;84.60;102303.75;5078258;28;20108;-65
2023/12/19 03:07:59;;;;;;;26.40;19.30;;;;;;;6.84;84.55;102309.25;5074381;28;20054;-65
2023/12/19 03:10:24;;;;;;;26.40;19.17;;;;;;;6.85;84.36;102300.78;5083609;28;20684;-65
2023/12/19 03:12:50;;;;;;;23.08;18.65;;;;;;;6.86;84.22;102301.63;5087629;28;20031;-64
2023/12/19 03:15:15;;;;;;;24.25;18.85;;;;;;;6.87;84.56;102297.81;5077524;28;20029;-65
2023/12/19 03:17:40;;;;;;;31.10;20.05;;;;;;;6.85;84.42;102294.41;5075193;28;20052;-65
2023/12/19 03:20:07;;;;;;;27.17;19.45;;;;;;;6.86;84.44;102285.06;5078394;28;20038;-65
2023/12/19 03:22:32;;;;;;;28.33;20.58;;;;;;;6.89;84.85;102285.53;5076529;28;20383;-65
2023/12/19 03:24:58;;;;;;;26.95;19.95;;;;;;;6.91;84.78;102274.28;5077576;28;20021;-65
2023/12/19 03:27:26;;;;;;;26.80;19.10;;;;;;;6.89;84.40;102279.16;5082736;28;20049;-65
2023/12/19 03:29:51;;;;;;;24.13;18.83;;;;;;;6.87;83.94;102270.22;5075383;28;20081;-65
2023/12/19 03:32:17;;;;;;;28.23;18.90;;;;;;;6.86;84.81;102266.59;5074307;28;20020;-65
2023/12/19 03:34:42;;;;;;;27.05;19.38;;;;;;;6.86;84.47;102247.28;5082995;28;20120;-66
2023/12/19 03:37:07;;;;;;;24.70;18.23;;;;;;;6.86;84.69;102243.66;5072842;28;20028;-65
2023/12/19 03:39:33;;;;;;;25.00;19.15;;;;;;;6.88;85.33;102238.81;5074020;28;20048;-65
2023/12/19 03:41:58;;;;;;;25.25;18.70;;;;;;;6.91;85.00;102232.88;5074208;28;20107;-65
2023/12/19 03:44:23;;;;;;;24.90;19.20;;;;;;;6.91;84.59;102232.03;5086319;28;20459;-65
2023/12/19 03:46:48;;;;;;;25.65;19.50;;;;;;;6.88;84.58;102230.53;5074842;28;20167;-66
2023/12/19 03:49:14;;;;;;;23.95;18.40;;;;;;;6.89;85.06;102226.72;5077675;28;20025;-66
2023/12/19 03:51:39;;;;;;;27.45;19.13;;;;;;;6.89;84.71;102224.81;5082173;28;20670;-65
2023/12/19 03:54:04;;;;;;;23.30;18.13;;;;;;;6.90;84.66;102233.94;5079244;28;20027;-65
2023/12/19 03:56:30;;;;;;;25.83;19.73;;;;;;;6.88;85.18;102230.53;5074303;28;20082;-65
2023/12/19 03:58:55;;;;;;;26.13;20.35;;;;;;;6.87;85.29;102215.00;5077185;28;20157;-65
2023/12/19 04:01:20;;;;;;;27.38;19.90;;;;;;;6.88;85.50;102217.59;5072950;28;20059;-65
2023/12/19 04:03:49;;;;;;;29.35;21.27;;;;;;;6.83;85.25;102208.19;5071996;28;20793;-65
2023/12/19 04:06:14;;;;;;;31.42;22.40;;;;;;;6.86;85.86;102207.78;5081263;28;20071;-65
2023/12/19 04:08:39;;;;;;;32.33;21.90;;;;;;;6.83;85.22;102209.03;5076277;28;20036;-65
2023/12/19 04:11:05;;;;;;;33.00;22.25;;;;;;;6.84;85.68;102209.91;5078918;28;20013;-65
2023/12/19 04:13:30;;;;;;;32.03;23.13;;;;;;;6.88;85.48;102216.75;5072226;28;20375;-65
2023/12/19 04:15:55;;;;;;;32.42;22.92;;;;;;;6.87;85.86;102201.22;5079468;28;20142;-65
2023/12/19 04:18:21;;;;;;;34.50;23.30;;;;;;;6.85;85.49;102208.84;5076790;28;20460;-65
2023/12/19 04:20:46;;;;;;;34.38;23.63;;;;;;;6.85;85.86;102204.19;5071233;28;20025;-65
2023/12/19 04:23:12;;;;;;;38.60;25.25;;;;;;;6.83;86.30;102203.50;5086405;28;20130;-65
2023/12/19 04:25:37;;;;;;;35.95;24.75;;;;;;;6.85;86.40;102189.53;5073536;28;20753;-66
2023/12/19 04:28:03;;;;;;;34.60;24.42;;;;;;;6.88;86.36;102178.09;5076516;28;20103;-64
2023/12/19 04:30:28;;;;;;;36.20;24.58;;;;;;;6.87;85.80;102168.94;5075776;28;20115;-65
2023/12/19 04:32:53;;;;;;;41.63;26.25;;;;;;;6.89;86.08;102171.53;5080442;28;20024;-65
2023/12/19 04:35:19;;;;;;;35.85;26.25;;;;;;;6.90;85.96;102162.19;5081629;28;20024;-65
2023/12/19 04:37:44;;;;;;;41.97;26.38;;;;;;;6.94;86.05;102160.75;5072871;28;20050;-65
2023/12/19 04:40:10;;;;;;;37.58;26.08;;;;;;;6.92;85.85;102146.31;5075793;28;20032;-65
2023/12/19 04:42:36;;;;;;;34.83;25.02;;;;;;;6.93;86.54;102141.63;5072166;28;20047;-64
2023/12/19 04:45:01;;;;;;;39.58;25.60;;;;;;;6.95;86.33;102145.88;5076589;28;20475;-65
2023/12/19 04:47:28;;;;;;;40.92;25.95;;;;;;;6.96;85.90;102141.25;5080862;28;20058;-65
2023/12/19 04:49:54;;;;;;;36.95;25.50;;;;;;;6.93;86.23;102136.97;5074191;28;20043;-65
2023/12/19 04:52:19;;;;;;;40.20;25.83;;;;;;;6.92;86.23;102126.97;5082240;28;20099;-65
2023/12/19 04:54:45;;;;;;;40.42;25.42;;;;;;;6.93;86.01;102136.97;5072144;28;20463;-65
2023/12/19 04:57:11;;;;;;;38.90;24.80;;;;;;;6.94;86.28;102137.81;5078862;28;20034;-65
2023/12/19 04:59:36;;;;;;;36.15;25.50;;;;;;;6.98;85.78;102125.31;5080360;28;20122;-65
2023/12/19 05:02:04;;;;;;;37.70;24.90;;;;;;;6.98;87.03;102126.16;5072149;28;20144;-65
2023/12/19 05:04:30;;;;;;;37.50;25.02;;;;;;;6.95;86.98;102120.19;5075811;28;20025;-65
2023/12/19 05:06:55;;;;;;;35.03;25.15;;;;;;;7.00;86.39;102121.31;5079030;28;20020;-65
2023/12/19 05:09:21;;;;;;;34.35;24.27;;;;;;;7.03;86.09;102125.56;5078421;28;20035;-65
2023/12/19 05:11:46;;;;;;;34.42;23.83;;;;;;;7.02;86.35;102119.19;5085806;28;20027;-64
2023/12/19 05:14:11;;;;;;;34.40;24.38;;;;;;;7.06;86.42;102117.75;5077587;28;20020;-65
2023/12/19 05:16:37;;;;;;;36.28;24.60;;;;;;;7.07;87.06;102121.34;5073973;28;20036;-65
2023/12/19 05:19:03;;;;;;;33.13;23.55;;;;;;;7.02;86.93;102129.38;5081333;28;20027;-65
2023/12/19 05:21:29;;;;;;;32.28;24.83;;;;;;;7.05;87.18;102127.09;5087384;28;20036;-65
2023/12/19 05:23:54;;;;;;;34.03;23.50;;;;;;;7.05;87.41;102129.84;5080860;28;20024;-65
2023/12/19 05:26:22;;;;;;;37.97;24.30;;;;;;;7.10;87.06;102130.09;5089758;28;20025;-65
2023/12/19 05:28:48;;;;;;;39.40;23.60;;;;;;;7.12;87.58;102127.16;5084724;28;20096;-65
2023/12/19 05:31:15;;;;;;;32.90;24.67;;;;;;;7.12;87.04;102118.88;5082763;28;20032;-65
2023/12/19 05:33:41;;;;;;;36.20;23.13;;;;;;;7.09;87.24;102120.13;5081350;28;20464;-65
2023/12/19 05:36:06;;;;;;;33.03;24.42;;;;;;;7.11;87.43;102111.63;5075169;28;20173;-65
2023/12/19 05:38:34;;;;;;;37.88;23.95;;;;;;;7.12;87.27;102114.19;5078652;28;20073;-64
2023/12/19 05:41:00;;;;;;;36.60;24.50;;;;;;;7.12;87.07;102108.69;5083054;28;20519;-65
2023/12/19 05:43:25;;;;;;;34.47;24.25;;;;;;;7.13;87.27;102115.91;5082153;28;20097;-65
2023/12/19 05:45:50;;;;;;;35.58;23.77;;;;;;;7.14;87.07;102101.03;5073111;28;20486;-66
2023/12/19 05:48:16;;;;;;;34.85;23.60;;;;;;;7.18;87.80;102106.16;5076813;28;20093;-66
2023/12/19 05:50:41;;;;;;;33.38;23.55;;;;;;;7.16;86.78;102089.81;5092956;28;20120;-66
2023/12/19 05:53:06;;;;;;;30.52;23.02;;;;;;;7.17;86.73;102080.47;5089048;28;20078;-66
2023/12/19 05:55:32;;;;;;;33.10;23.02;;;;;;;7.18;87.22;102073.03;5085302;28;20073;-66
2023/12/19 05:58:00;;;;;;;34.10;24.63;;;;;;;7.17;87.11;102065.81;5094171;28;20047;-66
2023/12/19 06:00:25;;;;;;;33.30;23.23;;;;;;;7.16;87.36;102066.88;5079791;28;20028;-66
2023/12/19 06:02:53;;;;;;;35.30;23.92;;;;;;;7.12;87.32;102075.53;5073358;28;20036;-66
2023/12/19 06:05:19;;;;;;;30.08;22.05;;;;;;;7.17;87.62;102079.59;5077652;28;20028;-66
2023/12/19 06:07:45;;;;;;;31.33;23.17;;;;;;;7.15;86.60;102066.00;5076564;28;20028;-66
2023/12/19 06:10:12;;;;;;;34.55;24.35;;;;;;;7.14;86.69;102065.13;5089641;28;20089;-65
2023/12/19 06:12:38;;;;;;;31.35;22.33;;;;;;;7.16;87.39;102064.97;5089547;28;20115;-66
2023/12/19 06:15:08;;;;;;;33.30;22.10;;;;;;;7.17;87.26;102057.53;5084457;28;20111;-66
2023/12/19 06:17:34;;;;;;;32.35;22.52;;;;;;;7.22;86.77;102077.09;5082173;28;20051;-67
2023/12/19 06:20:03;;;;;;;30.65;21.83;;;;;;;7.23;87.58;102063.09;5089132;28;20032;-67
2023/12/19 06:22:28;;;;;;;30.33;21.60;;;;;;;7.26;86.84;102064.59;5075099;28;20031;-67
2023/12/19 06:24:54;;;;;;;28.63;21.73;;;;;;;7.27;86.98;102055.25;5083207;28;20036;-66
2023/12/19 06:27:19;;;;;;;29.73;22.48;;;;;;;7.28;86.55;102059.72;5072805;28;20055;-66
2023/12/19 06:29:47;;;;;;;30.92;22.63;;;;;;;7.27;86.34;102055.25;5080317;28;20043;-67
2023/12/19 06:32:13;;;;;;;34.15;21.40;;;;;;;7.27;86.51;102055.25;5077821;28;20513;-66
2023/12/19 06:34:38;;;;;;;29.75;20.33;;;;;;;7.30;86.52;102054.84;5091533;28;20143;-67
2023/12/19 06:37:03;;;;;;;29.45;21.23;;;;;;;7.32;86.61;102055.50;5089922;28;20028;-66
2023/12/19 06:39:29;;;;;;;28.77;21.55;;;;;;;7.33;86.94;102046.16;5080350;28;20368;-66
2023/12/19 06:41:54;;;;;;;26.10;20.33;;;;;;;7.32;86.77;102041.69;5083837;28;20068;-66
2023/12/19 06:44:20;;;;;;;29.08;22.55;;;;;;;7.32;87.04;102047.22;5086801;28;20545;-66
2023/12/19 06:46:49;;;;;;;31.55;22.02;;;;;;;7.31;87.37;102046.38;5083573;28;20031;-66
2023/12/19 06:49:18;;;;;;;33.63;21.13;;;;;;;7.30;86.48;102044.66;5084476;28;20135;-67
2023/12/19 06:51:44;;;;;;;28.63;21.45;;;;;;;7.30;86.48;102050.16;5076662;28;20041;-66
2023/12/19 06:54:10;;;;;;;25.95;20.48;;;;;;;7.32;86.25;102052.75;5076362;28;20040;-66
2023/12/19 06:56:35;;;;;;;26.35;19.75;;;;;;;7.33;86.30;102046.16;5073671;28;20029;-66
2023/12/19 06:59:04;;;;;;;27.20;19.90;;;;;;;7.32;86.36;102038.94;5092812;28;20028;-66
2023/12/19 07:01:29;;;;;;;30.58;19.90;;;;;;;7.33;86.92;102047.00;5078041;28;20141;-66
2023/12/19 07:03:55;;;;;;;31.50;19.67;;;;;;;7.35;86.60;102042.16;5091220;28;20436;-67
2023/12/19 07:06:21;;;;;;;26.23;20.60;;;;;;;7.36;86.55;102031.94;5084496;28;20031;-69
2023/12/19 07:08:50;;;;;;;30.88;20.17;;;;;;;7.36;86.32;102031.94;5089674;28;20611;-68
2023/12/19 07:11:16;;;;;;;25.25;17.90;;;;;;;7.40;85.54;102029.63;5079859;28;20024;-66
2023/12/19 07:13:43;;;;;;;23.02;18.08;;;;;;;7.36;86.49;102029.19;5072613;28;20031;-68
2023/12/19 07:16:17;;;;;;;25.08;18.65;;;;;;;7.37;86.52;102030.88;5075322;28;20028;-68
2023/12/19 07:18:46;;;;;;;23.77;18.88;;;;;;;7.40;86.33;102036.00;5085049;28;20061;-67
2023/12/19 07:21:21;;;;;;;25.05;18.08;;;;;;;7.42;85.98;102033.03;5091668;28;20032;-67
2023/12/19 07:23:48;;;;;;;23.30;17.75;;;;;;;7.42;86.27;102013.69;5085406;28;20024;-68
2023/12/19 07:26:20;;;;;;;23.63;18.73;;;;;;;7.44;86.34;102017.13;5085962;28;20101;-65
2023/12/19 07:28:45;;;;;;;;;;;;;;;7.52;86.59;102009.50;5079119;28;20048;-70
2023/12/19 07:31:28;;;;;;;23.42;18.25;;;;;;;7.48;86.28;101993.56;5074555;28;19917;-69
2023/12/19 07:33:55;;;;;;;;;;;;;;;7.53;85.54;102004.84;5077990;28;20032;-69
2023/12/19 07:36:20;;;;;;;25.35;19.05;;;;;;;7.39;86.20;102009.44;5083644;28;20011;-67
2023/12/19 07:38:48;;;;;;;24.83;18.55;;;;;;;7.40;86.74;102013.91;5089661;28;20127;-70
2023/12/19 07:41:14;;;;;;;25.25;19.13;;;;;;;7.38;86.94;102024.28;5079861;28;20063;-69
2023/12/19 07:43:39;;;;;;;24.00;17.98;;;;;;;7.40;86.53;102022.19;5077655;28;20064;-71
2023/12/19 07:46:06;;;;;;;23.05;17.58;;;;;;;7.42;86.58;102033.88;5078954;28;20046;-60
2023/12/19 07:48:31;;;;;;;22.55;17.95;;;;;;;7.42;86.14;102025.59;5075199;28;20041;-60
2023/12/19 07:50:57;;;;;;;28.95;18.45;;;;;;;7.44;86.83;102017.97;5069975;28;20037;-67
2023/12/19 07:53:25;;;;;;;23.92;17.65;;;;;;;7.46;87.04;102015.00;5071305;28;20124;-67
2023/12/19 07:55:53;;;;;;;24.25;18.48;;;;;;;7.49;87.03;102009.91;5071206;28;20079;-67
2023/12/19 07:58:19;;;;;;;24.75;16.48;;;;;;;7.50;86.09;102014.38;5070836;28;20115;-67
2023/12/19 08:00:44;;;;;;;23.67;16.70;;;;;;;7.48;86.22;102008.22;5071163;28;20119;-67
2023/12/19 08:03:11;;;;;;;24.50;16.92;;;;;;;7.50;85.92;102000.56;5079069;28;20077;-66
2023/12/19 08:05:36;;;;;;;23.88;17.35;;;;;;;7.47;86.44;102006.53;5082541;28;20028;-67
2023/12/19 08:08:01;;;;;;;25.13;18.15;;;;;;;7.49;86.26;102003.53;5084607;28;20123;-67
2023/12/19 08:10:27;;;;;;;23.17;16.58;;;;;;;7.51;86.82;101985.72;5091545;28;20525;-67
2023/12/19 08:12:52;;;;;;;22.13;16.13;;;;;;;7.51;86.50;101990.41;5090744;28;20052;-67
2023/12/19 08:15:18;;;;;;;26.75;16.25;;;;;;;7.51;86.18;101988.47;5091684;28;20024;-67
2023/12/19 08:17:43;;;;;;;22.42;15.52;;;;;;;7.53;86.61;101994.63;5091172;28;20518;-68
2023/12/19 08:20:11;;;;;;;24.60;15.77;;;;;;;7.54;86.60;101992.72;5090870;28;20024;-66
2023/12/19 08:22:37;;;;;;;21.55;16.13;;;;;;;7.54;86.70;101993.56;5088623;28;20047;-67
2023/12/19 08:25:03;;;;;;;19.98;15.63;;;;;;;7.55;87.27;101992.53;5084715;28;20028;-67
2023/12/19 08:27:34;;;;;;;22.58;16.48;;;;;;;7.55;86.91;101992.53;5090022;28;20055;-66
2023/12/19 08:30:00;;;;;;;23.52;17.20;;;;;;;7.57;87.32;101984.03;5089244;28;20043;-67
2023/12/19 08:32:27;;;;;;;22.20;15.95;;;;;;;7.57;87.98;101981.25;5091420;28;20020;-67
2023/12/19 08:34:52;;;;;;;22.83;16.02;;;;;;;7.60;87.66;101984.47;5087824;28;20129;-67
2023/12/19 08:37:17;;;;;;;23.70;15.85;;;;;;;7.60;87.82;101997.44;5088808;28;20478;-67
2023/12/19 08:39:43;;;;;;;24.75;15.95;;;;;;;7.61;87.49;102007.41;5079559;28;20833;-66
2023/12/19 08:42:08;;;;;;;22.50;16.75;;;;;;;7.61;87.04;101994.47;5085715;28;20032;-67
2023/12/19 08:44:33;;;;;;;20.50;15.13;;;;;;;7.61;87.33;101986.16;5090770;28;20589;-67
2023/12/19 08:47:02;;;;;;;19.05;16.17;;;;;;;7.61;87.38;101983.41;5089873;28;20139;-67
2023/12/19 08:49:27;;;;;;;22.17;16.45;;;;;;;7.58;87.84;101980.19;5080508;28;20092;-67
2023/12/19 08:51:53;;;;;;;21.20;16.10;;;;;;;7.57;87.54;101990.41;5081610;28;20842;-67
2023/12/19 08:54:18;;;;;;;25.25;16.50;;;;;;;7.57;88.22;101984.88;5082424;28;20013;-67
2023/12/19 08:56:45;;;;;;;22.02;15.68;;;;;;;7.57;87.86;101975.75;5070368;28;20103;-67
2023/12/19 08:59:10;;;;;;;24.63;15.93;;;;;;;7.59;87.84;101970.88;5070521;28;20086;-67
2023/12/19 09:01:40;;;;;;;20.35;15.95;;;;;;;7.56;88.90;101966.59;5069562;28;20025;-66
2023/12/19 09:04:07;;;;;;;20.42;15.82;;;;;;;7.59;88.61;101962.59;5070294;28;20466;-61
2023/12/19 09:06:32;;;;;;;24.10;15.10;;;;;;;7.58;88.87;101975.56;5085185;28;20040;-60
2023/12/19 09:08:58;;;;;;;19.50;15.85;;;;;;;7.53;87.98;101969.78;5081118;28;20029;-67
2023/12/19 09:11:23;;;;;;;19.95;15.68;;;;;;;7.57;88.42;101975.75;5078850;28;20020;-67
2023/12/19 09:13:49;;;;;;;18.55;14.00;;;;;;;7.60;88.58;101972.56;5087284;28;20070;-67
2023/12/19 09:16:14;;;;;;;18.45;14.07;;;;;;;7.56;88.36;101966.59;5087661;28;20024;-67
2023/12/19 09:18:40;;;;;;;20.20;14.05;;;;;;;7.60;88.48;101972.56;5090114;28;20534;-66
2023/12/19 09:21:05;;;;;;;17.10;13.80;;;;;;;7.61;88.45;101957.69;5090703;28;20048;-67
2023/12/19 09:23:31;;;;;;;17.65;13.35;;;;;;;7.61;88.85;101952.16;5089839;28;20051;-67
2023/12/19 09:25:56;;;;;;;19.40;13.55;;;;;;;7.61;88.90;101950.25;5090358;28;20028;-67
2023/12/19 09:28:23;;;;;;;17.13;12.88;;;;;;;7.62;88.06;101946.44;5085129;28;20487;-66
2023/12/19 09:30:49;;;;;;;16.90;12.98;;;;;;;7.60;88.18;101945.78;5085806;28;20082;-67
2023/12/19 09:33:14;;;;;;;17.10;13.07;;;;;;;7.58;88.89;101950.69;5090358;28;20024;-67
2023/12/19 09:35:39;;;;;;;17.15;12.05;;;;;;;7.59;89.13;101948.78;5082884;28;20106;-67
2023/12/19 09:38:05;;;;;;;14.57;11.90;;;;;;;7.60;88.63;101937.50;5086246;28;20081;-67
2023/12/19 09:40:31;;;;;;;16.88;12.35;;;;;;;7.61;88.60;101949.41;5081810;28;20118;-67
2023/12/19 09:42:57;;;;;;;19.60;12.90;;;;;;;7.62;88.98;101935.41;5073431;28;20039;-66
2023/12/19 09:45:23;;;;;;;13.82;11.25;;;;;;;7.63;89.12;101937.09;5069504;28;20032;-67
2023/12/19 09:48:09;;;;;;;12.20;10.75;;;;;;;7.66;88.62;101941.34;5069775;28;20085;-67
2023/12/19 09:50:42;;;;;;;14.32;11.05;;;;;;;7.61;89.31;101930.06;5068897;28;20037;-67
2023/12/19 09:53:09;;;;;;;12.82;10.57;;;;;;;7.63;89.01;101927.94;5072786;28;20078;-67
2023/12/19 09:55:42;;;;;;;12.40;10.05;;;;;;;7.67;88.92;101922.88;5090348;28;20028;-67
2023/12/19 09:58:08;;;;;;;11.18;9.88;;;;;;;7.63;89.37;101917.75;5089622;28;20040;-67
2023/12/19 10:00:36;;;;;;;10.80;9.48;;;;;;;7.63;89.45;101916.91;5090102;28;20035;-67
2023/12/19 10:03:03;;;;;;;11.65;10.20;;;;;;;7.67;88.81;101911.81;5090373;28;20085;-67
2023/12/19 10:05:29;;;;;;;10.43;8.90;;;;;;;7.69;89.30;101910.53;5093052;28;20039;-67
2023/12/19 10:07:57;;;;;;;11.88;9.70;;;;;;;7.72;88.79;101909.28;5092234;28;20028;-67
2023/12/19 10:10:28;;;;;;;11.13;9.40;;;;;;;7.71;89.50;101905.66;5088956;28;20031;-67
2023/12/19 10:12:53;;;;;;;11.85;10.00;;;;;;;7.71;89.00;101902.91;5092095;28;20032;-67
2023/12/19 10:15:22;;;;;;;12.43;9.60;;;;;;;7.71;88.78;101888.22;5093580;28;20596;-67
2023/12/19 10:18:11;;;;;;;9.80;8.77;;;;;;;7.78;88.88;101908.41;5093629;28;20111;-67
2023/12/19 10:20:38;;;;;;;11.68;9.80;;;;;;;7.72;89.32;101903.75;5092553;28;20069;-67
2023/12/19 10:23:07;;;;;;;11.60;9.75;;;;;;;7.70;89.80;101898.41;5091581;28;20028;-67
2023/12/19 10:25:32;;;;;;;10.07;9.02;;;;;;;7.72;89.12;101893.53;5079704;28;20395;-67
2023/12/19 10:28:10;;;;;;;10.48;9.25;;;;;;;7.74;89.48;101887.78;5086330;28;20693;-67
2023/12/19 10:30:39;;;;;;;11.15;8.95;;;;;;;7.75;89.41;101887.59;5092041;28;20020;-67
2023/12/19 10:33:04;;;;;;;11.82;9.27;;;;;;;7.74;88.81;101876.72;5092894;28;20035;-67
2023/12/19 10:35:39;;;;;;;10.93;8.48;;;;;;;7.76;89.32;101861.66;5093542;28;20028;-67
2023/12/19 10:38:08;;;;;;;10.93;9.15;;;;;;;7.75;89.09;101856.34;5093116;28;20028;-67
2023/12/19 10:40:33;;;;;;;9.80;8.48;;;;;;;7.75;89.58;101862.72;5089278;28;20513;-67
2023/12/19 10:43:02;;;;;;;10.63;8.73;;;;;;;7.77;89.14;101852.28;5074660;28;20032;-65
2023/12/19 10:45:28;;;;;;;12.68;8.40;;;;;;;7.78;88.85;101847.63;5073900;28;20043;-67
2023/12/19 10:47:53;;;;;;;11.02;9.30;;;;;;;7.78;89.62;101858.66;5071963;28;20063;-67
2023/12/19 10:50:19;;;;;;;11.02;9.13;;;;;;;7.78;89.40;101859.53;5075852;28;20059;-67
2023/12/19 10:52:49;;;;;;;9.75;8.75;;;;;;;7.80;89.33;101840.81;5092749;28;20078;-66
2023/12/19 10:55:18;;;;;;;12.48;9.18;;;;;;;7.79;89.13;101824.47;5091982;28;20040;-67
2023/12/19 10:57:47;;;;;;;10.48;8.95;;;;;;;7.82;89.29;101815.72;5092448;28;20035;-66
2023/12/19 11:00:21;;;;;;;12.98;10.25;;;;;;;7.81;89.53;101803.81;5078326;28;20111;-67
2023/12/19 11:03:05;;;;;;;11.75;9.93;;;;;;;7.82;89.31;101800.03;5091594;28;20020;-66
2023/12/19 11:05:33;;;;;;;10.85;9.73;;;;;;;7.80;89.20;101793.00;5092892;28;20020;-66
2023/12/19 11:08:03;;;;;;;11.13;9.80;;;;;;;7.79;89.25;101791.31;5089502;28;20032;-67
2023/12/19 11:10:35;;;;;;;12.25;9.73;;;;;;;7.77;90.07;101790.66;5082317;28;20036;-66
2023/12/19 11:13:00;;;;;;;11.30;10.10;;;;;;;7.79;89.63;101780.25;5092872;28;20055;-66
2023/12/19 11:15:27;;;;;;;12.30;10.25;;;;;;;7.81;89.33;101769.81;5091358;28;20367;-66